Time;durP1;ratioP1;P1;durP2;ratioP2;P2;SDS_P1;SDS_P2;PMS_P1;PMS_P2;Temp;Humidity;BMP_temperature;BMP_pressure;BME280_temperature;BME280_humidity;BME280_pressure;Samples;Min_cycle;Max_cycle;Signal;HPM_P1;HPM_P2
2023/07/07 04:06:02;;;;;;;1.60;1.50;;;13.40;99.90;;;;;;5359640;23;20494;-61
2023/07/07 04:08:28;;;;;;;1.90;1.80;;;13.40;99.90;;;;;;4974350;28;20423;-61
2023/07/07 04:11:15;;;;;;;1.90;1.80;;;13.50;99.90;;;;;;4974323;28;20440;-61
2023/07/07 04:13:43;;;;;;;2.23;2.03;;;13.50;99.90;;;;;;4974326;28;20397;-62
2023/07/07 04:16:17;;;;;;;2.17;2.07;;;13.50;99.90;;;;;;4974381;28;20499;-62
2023/07/07 04:18:44;;;;;;;1.80;1.70;;;13.60;99.90;;;;;;4974681;28;20558;-61
2023/07/07 04:21:20;;;;;;;2.33;2.23;;;13.70;99.90;;;;;;4974278;28;20458;-62
2023/07/07 04:23:47;;;;;;;2.63;2.30;;;13.80;99.90;;;;;;4973982;28;20465;-61
2023/07/07 04:26:14;;;;;;;4.20;1.87;;;13.90;99.90;;;;;;4974220;28;20438;-61
2023/07/07 04:28:40;;;;;;;1.50;1.40;;;14.10;99.90;;;;;;4974414;28;20416;-61
2023/07/07 04:31:09;;;;;;;1.40;1.27;;;14.30;99.90;;;;;;4974142;28;20422;-62
2023/07/07 04:33:35;;;;;;;2.43;2.30;;;14.50;99.90;;;;;;4973424;28;20418;-62
2023/07/07 04:36:03;;;;;;;1.80;1.70;;;14.70;99.90;;;;;;4973104;28;20532;-62
2023/07/07 04:38:32;;;;;;;2.83;2.10;;;14.90;99.90;;;;;;4974214;28;20462;-62
2023/07/07 04:41:04;;;;;;;2.37;2.17;;;15.20;99.90;;;;;;4975182;28;20501;-62
2023/07/07 04:43:31;;;;;;;1.90;1.80;;;15.40;99.90;;;;;;4973612;28;20395;-63
2023/07/07 04:45:57;;;;;;;2.30;2.00;;;15.60;99.90;;;;;;4959263;28;20431;-62
2023/07/07 04:48:22;;;;;;;1.60;1.50;;;15.80;99.90;;;;;;4977950;28;20444;-62
2023/07/07 04:50:48;;;;;;;1.60;1.50;;;16.00;99.90;;;;;;4987980;28;20258;-62
2023/07/07 04:53:14;;;;;;;3.60;2.33;;;16.20;99.90;;;;;;4976912;28;20184;-61
2023/07/07 04:55:43;;;;;;;1.60;1.50;;;16.30;99.90;;;;;;4977214;28;20199;-62
2023/07/07 04:58:08;;;;;;;2.10;2.00;;;16.40;99.90;;;;;;4977267;28;20185;-62
2023/07/07 05:00:34;;;;;;;2.03;1.93;;;16.50;99.90;;;;;;4965092;28;20436;-63
2023/07/07 05:03:00;;;;;;;2.73;2.53;;;16.50;99.90;;;;;;4958054;29;20412;-62
2023/07/07 05:05:25;;;;;;;2.20;2.00;;;16.50;99.90;;;;;;4957372;28;20208;-62
2023/07/07 05:07:51;;;;;;;2.30;2.10;;;16.50;99.90;;;;;;4958701;28;20184;-62
2023/07/07 05:10:16;;;;;;;1.60;1.50;;;16.50;99.90;;;;;;4958225;29;20177;-62
2023/07/07 05:12:42;;;;;;;2.50;2.27;;;16.40;99.90;;;;;;4958127;29;20181;-63
2023/07/07 05:15:08;;;;;;;2.00;1.90;;;16.40;99.90;;;;;;4957605;28;20755;-60
2023/07/07 05:17:33;;;;;;;2.37;2.27;;;16.50;99.90;;;;;;4957857;28;20200;-60
2023/07/07 05:19:59;;;;;;;2.07;1.73;;;16.50;99.90;;;;;;4957483;29;20416;-62
2023/07/07 05:22:24;;;;;;;3.03;2.83;;;16.60;99.90;;;;;;4940117;29;20663;-61
2023/07/07 05:24:50;;;;;;;2.23;2.00;;;16.60;99.90;;;;;;4957656;28;20190;-60
2023/07/07 05:27:15;;;;;;;2.33;2.13;;;16.70;99.90;;;;;;4957901;29;20180;-61
2023/07/07 05:29:41;;;;;;;3.00;2.67;;;16.70;99.90;;;;;;4957803;29;20174;-61
2023/07/07 05:32:07;;;;;;;3.00;2.73;;;16.70;99.90;;;;;;4957754;29;20182;-61
2023/07/07 05:34:32;;;;;;;1.53;1.40;;;16.70;99.90;;;;;;4957342;29;20591;-61
2023/07/07 05:36:58;;;;;;;1.77;1.67;;;16.90;99.90;;;;;;4957779;29;20415;-61
2023/07/07 05:39:24;;;;;;;2.60;2.07;;;17.20;99.90;;;;;;4957606;29;20257;-61
2023/07/07 05:41:49;;;;;;;5.10;2.97;;;17.60;99.90;;;;;;4957468;29;20205;-61
2023/07/07 05:44:15;;;;;;;1.83;1.73;;;18.10;99.90;;;;;;4971147;28;20546;-62
2023/07/07 05:46:40;;;;;;;6.97;2.23;;;18.50;99.90;;;;;;4976359;28;20164;-64
2023/07/07 05:49:06;;;;;;;2.53;2.33;;;18.70;99.70;;;;;;4976313;28;20172;-62
2023/07/07 05:51:31;;;;;;;4.87;2.13;;;18.80;99.20;;;;;;4976098;28;20199;-61
2023/07/07 05:53:57;;;;;;;2.50;2.30;;;18.90;99.20;;;;;;4976034;28;20642;-61
2023/07/07 05:56:24;;;;;;;2.40;2.07;;;18.80;98.70;;;;;;4976046;28;20680;-61
2023/07/07 05:58:52;;;;;;;1.73;1.60;;;18.90;98.50;;;;;;4976349;28;20624;-61
2023/07/07 06:01:17;;;;;;;2.13;2.03;;;19.00;97.60;;;;;;4957949;28;20456;-61
2023/07/07 06:03:44;;;;;;;5.23;2.33;;;19.10;97.40;;;;;;4956465;29;20413;-62
2023/07/07 06:06:10;;;;;;;2.43;2.10;;;19.00;96.90;;;;;;4956998;29;20576;-61
2023/07/07 06:08:36;;;;;;;2.40;1.80;;;19.00;97.50;;;;;;4957056;28;20745;-61
2023/07/07 06:11:01;;;;;;;2.43;2.23;;;19.10;97.70;;;;;;4956881;29;20413;-61
2023/07/07 06:13:28;;;;;;;2.43;1.90;;;19.10;96.90;;;;;;4956712;29;20184;-61
2023/07/07 06:15:54;;;;;;;1.73;1.60;;;19.10;96.10;;;;;;4957074;28;20211;-62
2023/07/07 06:18:21;;;;;;;2.27;2.07;;;19.20;96.50;;;;;;4957167;29;20783;-62
2023/07/07 06:20:48;;;;;;;2.40;2.20;;;19.30;96.40;;;;;;4956799;28;20463;-63
2023/07/07 06:23:14;;;;;;;4.63;2.30;;;19.40;96.50;;;;;;4956703;28;20379;-63
2023/07/07 06:25:39;;;;;;;3.00;1.97;;;19.50;96.00;;;;;;4956592;28;20846;-62
2023/07/07 06:28:05;;;;;;;1.93;1.83;;;19.60;96.50;;;;;;4956550;29;20174;-62
2023/07/07 06:30:31;;;;;;;1.73;1.63;;;19.80;96.50;;;;;;4956718;28;20219;-61
2023/07/07 06:32:58;;;;;;;2.47;2.03;;;20.00;95.50;;;;;;4956582;28;20592;-61
2023/07/07 06:35:25;;;;;;;1.73;1.63;;;20.30;95.70;;;;;;4956255;28;20682;-61
2023/07/07 06:37:50;;;;;;;1.50;1.43;;;20.60;95.20;;;;;;4956542;29;20419;-61
2023/07/07 06:40:16;;;;;;;1.80;1.70;;;20.90;94.80;;;;;;4939371;29;20436;-61
2023/07/07 06:42:41;;;;;;;1.90;1.60;;;21.00;94.50;;;;;;4956407;29;20260;-61
2023/07/07 06:45:07;;;;;;;1.80;1.70;;;21.10;93.90;;;;;;4956071;29;20204;-61
2023/07/07 06:47:33;;;;;;;1.70;1.60;;;21.10;93.80;;;;;;4956344;29;20177;-60
2023/07/07 06:49:59;;;;;;;2.40;2.20;;;21.10;93.80;;;;;;4956356;29;20500;-61
2023/07/07 06:52:24;;;;;;;1.70;1.60;;;21.20;93.40;;;;;;4956318;29;20169;-61
2023/07/07 06:54:50;;;;;;;1.53;1.43;;;21.20;93.40;;;;;;4955677;29;20185;-61
2023/07/07 06:57:16;;;;;;;1.97;1.87;;;21.30;93.10;;;;;;4956145;29;20520;-61
2023/07/07 06:59:41;;;;;;;1.97;1.87;;;21.30;93.00;;;;;;4961422;28;20535;-61
2023/07/07 07:02:12;;;;;;;1.67;1.57;;;21.50;93.00;;;;;;4975469;28;20287;-61
2023/07/07 07:04:40;;;;;;;3.30;1.63;;;21.60;91.60;;;;;;4975175;28;20311;-60
2023/07/07 07:07:09;;;;;;;1.97;1.87;;;21.70;91.70;;;;;;4957421;28;20415;-61
2023/07/07 07:09:35;;;;;;;1.97;1.40;;;21.80;92.20;;;;;;4974978;28;20439;-61
2023/07/07 07:12:00;;;;;;;1.93;1.83;;;22.00;91.80;;;;;;4975151;28;20850;-61
2023/07/07 07:14:26;;;;;;;1.70;1.60;;;22.10;92.60;;;;;;4974788;28;20201;-61
2023/07/07 07:16:52;;;;;;;2.17;1.47;;;22.30;92.30;;;;;;4957726;28;20182;-61
2023/07/07 07:19:17;;;;;;;1.80;1.70;;;22.40;91.50;;;;;;4975213;28;20181;-61
2023/07/07 07:21:43;;;;;;;1.67;1.57;;;22.60;91.40;;;;;;4974992;28;20218;-60
2023/07/07 07:24:08;;;;;;;2.03;1.60;;;22.60;91.30;;;;;;4974797;28;20258;-61
2023/07/07 07:26:34;;;;;;;2.00;1.77;;;22.70;90.60;;;;;;4975160;28;20175;-61
2023/07/07 07:28:59;;;;;;;2.00;1.90;;;22.90;90.70;;;;;;4975189;28;20180;-61
2023/07/07 07:31:26;;;;;;;2.13;1.60;;;23.20;90.40;;;;;;4957790;28;20176;-61
2023/07/07 07:33:53;;;;;;;2.80;2.60;;;23.80;90.70;;;;;;4974566;28;20176;-61
2023/07/07 07:36:19;;;;;;;2.07;1.97;;;24.50;89.00;;;;;;4974930;28;20436;-61
2023/07/07 07:38:45;;;;;;;1.53;1.43;;;25.20;88.50;;;;;;4975114;28;20481;-62
2023/07/07 07:41:10;;;;;;;2.17;1.97;;;26.00;85.50;;;;;;4974615;28;20562;-61
2023/07/07 07:43:36;;;;;;;2.47;2.27;;;26.90;81.20;;;;;;4974416;28;20176;-61
2023/07/07 07:46:01;;;;;;;2.63;2.40;;;27.80;80.70;;;;;;4974650;28;20196;-62
2023/07/07 07:48:27;;;;;;;3.20;2.90;;;29.10;74.60;;;;;;4974960;28;20274;-62
2023/07/07 07:50:53;;;;;;;6.27;3.67;;;30.20;71.00;;;;;;4974796;28;20278;-62
2023/07/07 07:53:19;;;;;;;2.80;2.60;;;31.40;67.80;;;;;;4974390;28;20172;-62
2023/07/07 07:55:44;;;;;;;2.97;2.77;;;32.70;67.00;;;;;;4974351;28;20264;-62
2023/07/07 07:58:11;;;;;;;2.50;2.30;;;34.00;61.00;;;;;;4974661;28;20463;-63
2023/07/07 08:00:36;;;;;;;2.00;1.90;;;34.80;58.50;;;;;;4974437;28;20228;-62
2023/07/07 08:03:02;;;;;;;2.70;2.00;;;35.20;58.10;;;;;;4957158;28;20846;-62
2023/07/07 08:05:27;;;;;;;2.30;2.10;;;35.70;57.10;;;;;;4973943;28;20208;-62
2023/07/07 08:07:53;;;;;;;2.30;2.20;;;36.60;55.40;;;;;;4974350;28;20226;-62
2023/07/07 08:10:19;;;;;;;2.40;2.20;;;37.30;55.30;;;;;;4957046;28;20534;-63
2023/07/07 08:12:44;;;;;;;2.37;2.27;;;38.10;53.60;;;;;;4974485;28;20171;-63
2023/07/07 08:15:11;;;;;;;2.63;2.53;;;38.90;51.70;;;;;;4973984;28;20196;-62
2023/07/07 08:17:37;;;;;;;2.40;2.30;;;39.30;51.50;;;;;;4974589;28;20511;-62
2023/07/07 08:20:05;;;;;;;2.60;2.40;;;39.60;50.10;;;;;;4977143;28;20473;-63
2023/07/07 08:22:31;;;;;;;3.03;2.83;;;39.80;50.00;;;;;;4978299;28;20420;-64
2023/07/07 08:24:58;;;;;;;2.47;2.37;;;39.90;49.10;;;;;;4977966;28;20431;-62
2023/07/07 08:27:25;;;;;;;2.90;2.70;;;40.00;48.00;;;;;;4978376;28;20183;-62
2023/07/07 08:29:51;;;;;;;3.13;2.93;;;40.00;48.00;;;;;;4960897;28;20415;-63
2023/07/07 08:32:21;;;;;;;2.63;2.47;;;40.10;48.30;;;;;;4978174;28;20466;-62
2023/07/07 08:34:51;;;;;;;2.70;2.50;;;39.60;47.30;;;;;;4977717;28;20945;-62
2023/07/07 08:37:17;;;;;;;2.77;2.53;;;39.10;48.40;;;;;;4960703;28;20426;-63
2023/07/07 08:39:43;;;;;;;2.80;2.60;;;39.00;48.40;;;;;;4978270;28;20446;-63
2023/07/07 08:42:24;;;;;;;3.50;2.60;;;39.10;48.00;;;;;;4978040;28;20399;-62
2023/07/07 08:44:50;;;;;;;2.80;2.60;;;39.20;48.30;;;;;;4960280;28;20435;-63
2023/07/07 08:47:40;;;;;;;2.80;2.60;;;39.40;48.30;;;;;;4977562;28;20818;-63
2023/07/07 08:50:31;;;;;;;2.87;2.67;;;39.70;47.80;;;;;;4978570;28;20427;-63
2023/07/07 08:53:34;;;;;;;2.40;2.30;;;40.30;47.30;;;;;;4977968;28;20411;-63
2023/07/07 08:56:24;;;;;;;2.87;2.67;;;41.00;46.50;;;;;;4977644;28;20418;-63
2023/07/07 08:59:08;;;;;;;2.93;2.73;;;41.30;45.40;;;;;;4977919;28;20403;-63
2023/07/07 09:01:46;;;;;;;2.93;2.70;;;41.40;45.60;;;;;;4957205;29;20961;-62
2023/07/07 09:04:33;;;;;;;3.23;3.00;;;41.80;44.80;;;;;;4958000;28;20424;-63
2023/07/07 09:07:28;;;;;;;3.27;3.07;;;42.10;44.40;;;;;;4940982;29;20954;-63
2023/07/07 09:10:00;;;;;;;2.90;2.70;;;42.40;42.60;;;;;;4958720;29;20412;-63
2023/07/07 09:12:28;;;;;;;3.10;2.90;;;42.50;42.10;;;;;;4958099;28;20463;-63
2023/07/07 09:14:57;;;;;;;2.57;2.47;;;42.40;42.10;;;;;;4957580;28;20579;-63
2023/07/07 09:17:45;;;;;;;2.73;2.53;;;42.40;42.10;;;;;;4958075;29;20416;-64
2023/07/07 09:20:13;;;;;;;3.03;2.83;;;42.60;41.90;;;;;;4940825;29;20779;-62
2023/07/07 09:22:55;;;;;;;3.63;3.40;;;42.40;41.20;;;;;;4957795;29;20408;-63
2023/07/07 09:25:30;;;;;;;2.50;2.40;;;41.70;40.10;;;;;;4957479;28;20424;-62
2023/07/07 09:28:09;;;;;;;3.43;3.23;;;41.60;38.50;;;;;;4958169;29;20832;-63
2023/07/07 09:30:47;;;;;;;2.30;2.20;;;41.40;37.90;;;;;;4956934;28;20482;-62
2023/07/07 09:33:15;;;;;;;3.50;3.20;;;41.20;37.50;;;;;;4957655;28;20401;-62
2023/07/07 09:35:56;;;;;;;3.10;2.90;;;40.70;38.20;;;;;;4957621;28;20440;-62
2023/07/07 09:38:39;;;;;;;4.07;2.90;;;40.60;38.10;;;;;;4957737;29;20443;-63
2023/07/07 09:41:27;;;;;;;2.37;2.23;;;40.40;38.90;;;;;;4957741;29;20416;-64
2023/07/07 09:44:17;;;;;;;3.17;2.77;;;40.70;38.70;;;;;;4957470;29;20419;-64
2023/07/07 09:46:51;;;;;;;3.03;2.83;;;41.00;38.40;;;;;;4957613;29;20471;-64
2023/07/07 09:49:30;;;;;;;2.83;2.63;;;40.50;38.00;;;;;;4957522;29;20941;-64
2023/07/07 09:52:09;;;;;;;3.30;3.00;;;40.00;38.30;;;;;;4957598;28;20874;-64
2023/07/07 09:54:35;;;;;;;2.80;2.60;;;39.60;38.80;;;;;;4957082;28;20519;-64
2023/07/07 09:57:25;;;;;;;3.93;3.63;;;39.40;39.20;;;;;;4957785;29;20419;-64
2023/07/07 09:59:55;;;;;;;3.47;3.17;;;39.80;39.30;;;;;;4963903;28;20743;-64
2023/07/07 10:02:23;;;;;;;3.00;2.70;;;39.40;39.30;;;;;;4976569;28;20839;-64
2023/07/07 10:04:59;;;;;;;3.50;3.20;;;39.40;39.50;;;;;;4958883;28;20793;-62
2023/07/07 10:07:27;;;;;;;3.13;2.83;;;39.30;39.30;;;;;;4976479;28;20936;-64
2023/07/07 10:09:52;;;;;;;3.97;3.23;;;39.10;39.30;;;;;;4976591;28;20408;-63
2023/07/07 10:12:18;;;;;;;3.93;3.63;;;39.20;38.60;;;;;;4976486;28;20463;-64
2023/07/07 10:14:45;;;;;;;3.33;3.10;;;39.20;37.60;;;;;;4975873;28;20615;-64
2023/07/07 10:17:14;;;;;;;4.10;3.53;;;39.20;38.20;;;;;;4976406;28;20196;-64
2023/07/07 10:19:42;;;;;;;3.67;3.37;;;39.50;38.50;;;;;;4976223;28;20418;-64
2023/07/07 10:22:13;;;;;;;3.90;3.60;;;40.10;39.00;;;;;;4976390;28;20412;-65
2023/07/07 10:24:38;;;;;;;3.50;3.20;;;40.20;38.10;;;;;;4975810;28;20427;-64
2023/07/07 10:27:04;;;;;;;3.83;3.33;;;39.70;38.60;;;;;;4976110;28;20426;-64
2023/07/07 10:29:37;;;;;;;4.07;3.60;;;39.80;38.90;;;;;;4975951;28;20534;-64
2023/07/07 10:32:03;;;;;;;3.70;3.40;;;40.00;39.40;;;;;;4975880;28;20462;-64
2023/07/07 10:34:35;;;;;;;4.80;4.07;;;40.20;39.60;;;;;;4975502;28;20431;-64
2023/07/07 10:37:01;;;;;;;3.47;3.20;;;40.00;38.80;;;;;;4975806;28;20400;-63
2023/07/07 10:39:28;;;;;;;4.00;3.60;;;39.60;39.10;;;;;;4975915;28;20898;-64
2023/07/07 10:41:54;;;;;;;3.13;2.87;;;39.30;39.40;;;;;;4975823;28;20183;-64
2023/07/07 10:44:24;;;;;;;2.87;2.63;;;39.10;39.00;;;;;;4975473;28;20431;-65
2023/07/07 10:46:49;;;;;;;4.07;3.67;;;39.10;39.60;;;;;;4958503;28;20251;-64
2023/07/07 10:49:18;;;;;;;3.63;3.10;;;38.80;38.70;;;;;;4975680;28;20945;-65
2023/07/07 10:52:11;;;;;;;3.70;3.40;;;38.40;39.10;;;;;;4975563;28;20196;-64
2023/07/07 10:55:00;;;;;;;3.40;3.10;;;38.10;39.20;;;;;;4975288;28;20782;-64
2023/07/07 10:57:39;;;;;;;3.70;3.35;;;37.80;39.20;;;;;;4974703;28;20421;-64
2023/07/07 11:00:32;;;;;;;3.17;2.87;;;37.40;39.20;;;;;;4980238;28;20173;-64
2023/07/07 11:03:36;;;;;;;3.40;3.10;;;37.10;39.90;;;;;;4993917;28;20493;-64
2023/07/07 11:06:23;;;;;;;3.00;2.80;;;36.90;39.80;;;;;;4980409;28;20457;-65
2023/07/07 11:09:21;;;;;;;3.27;2.97;;;36.80;40.30;;;;;;4993763;28;20967;-64
2023/07/07 11:12:25;;;;;;;3.23;2.93;;;36.70;39.70;;;;;;4994129;28;20513;-64
2023/07/07 11:15:10;;;;;;;2.90;2.70;;;36.60;40.10;;;;;;4991122;28;20445;-64
2023/07/07 11:18:17;;;;;;;3.77;3.00;;;36.50;40.40;;;;;;4994477;28;20404;-63
2023/07/07 11:20:57;;;;;;;2.60;2.40;;;35.90;40.00;;;;;;4934799;29;20432;-64
2023/07/07 11:23:39;;;;;;;3.37;3.07;;;35.00;40.70;;;;;;4934135;29;20464;-64
2023/07/07 11:26:27;;;;;;;3.70;3.30;;;33.90;42.10;;;;;;4934637;29;20440;-63
2023/07/07 11:29:30;;;;;;;4.07;3.70;;;33.20;42.80;;;;;;4934432;29;20799;-63
2023/07/07 11:32:10;;;;;;;4.67;3.37;;;32.60;42.80;;;;;;4908143;29;20443;-63
2023/07/07 11:35:26;;;;;;;4.27;3.33;;;32.20;44.00;;;;;;4933927;29;20502;-64
2023/07/07 11:38:12;;;;;;;3.00;2.70;;;31.90;43.70;;;;;;4929777;29;20479;-63
2023/07/07 11:41:15;;;;;;;4.50;3.10;;;31.60;44.50;;;;;;4934563;29;20434;-64
2023/07/07 11:43:47;;;;;;;2.93;2.70;;;31.40;44.80;;;;;;4933617;29;20950;-63
2023/07/07 11:46:50;;;;;;;3.73;3.00;;;31.10;44.80;;;;;;4934205;29;20448;-64
2023/07/07 11:49:27;;;;;;;9.17;3.43;;;31.00;44.70;;;;;;4918318;29;20797;-63
2023/07/07 11:52:17;;;;;;;4.97;3.43;;;30.90;43.60;;;;;;4975554;28;20440;-64
2023/07/07 11:54:46;;;;;;;4.70;3.63;;;30.80;43.70;;;;;;4993223;28;20438;-64
2023/07/07 11:57:37;;;;;;;3.43;2.50;;;30.70;43.70;;;;;;4994151;28;20374;-64
2023/07/07 12:00:09;;;;;;;4.77;3.93;;;30.70;43.30;;;;;;4985648;28;20904;-63
2023/07/07 12:02:42;;;;;;;4.80;3.10;;;30.60;43.70;;;;;;4974452;28;20808;-64
2023/07/07 12:05:13;;;;;;;3.90;3.40;;;30.70;44.10;;;;;;4974069;28;20464;-64
2023/07/07 12:07:45;;;;;;;3.80;2.77;;;30.70;42.60;;;;;;4974334;28;20523;-63
2023/07/07 12:10:19;;;;;;;4.50;3.10;;;30.80;41.00;;;;;;4974435;28;20416;-64
2023/07/07 12:12:55;;;;;;;5.67;4.37;;;30.80;41.30;;;;;;4974526;28;20411;-63
2023/07/07 12:15:28;;;;;;;4.47;3.27;;;30.80;42.10;;;;;;4974005;28;20421;-63
2023/07/07 12:18:28;;;;;;;3.77;3.20;;;30.90;41.70;;;;;;4974409;28;20744;-63
2023/07/07 12:21:12;;;;;;;4.87;3.80;;;30.90;42.80;;;;;;4974722;28;20407;-63
2023/07/07 12:23:39;;;;;;;4.17;3.70;;;30.90;42.30;;;;;;4974080;28;20470;-63
2023/07/07 12:26:11;;;;;;;3.60;3.20;;;30.90;42.60;;;;;;4974208;28;20541;-63
2023/07/07 12:28:38;;;;;;;3.93;3.50;;;30.90;43.10;;;;;;4974247;28;20415;-63
2023/07/07 12:31:04;;;;;;;4.80;4.07;;;30.90;43.50;;;;;;4974366;28;20484;-63
2023/07/07 12:33:40;;;;;;;3.77;2.97;;;31.00;44.30;;;;;;4973962;28;20452;-63
2023/07/07 12:36:07;;;;;;;3.93;3.10;;;31.00;43.20;;;;;;4974107;28;20430;-64
2023/07/07 12:38:35;;;;;;;3.33;2.10;;;31.10;42.10;;;;;;4974069;28;20924;-63
2023/07/07 12:41:21;;;;;;;3.93;2.80;;;31.00;42.10;;;;;;4973910;28;20446;-64
2023/07/07 12:43:52;;;;;;;3.13;2.50;;;31.10;41.70;;;;;;4973724;28;20428;-63
2023/07/07 12:46:28;;;;;;;3.87;2.87;;;31.00;39.70;;;;;;4974030;28;20420;-63
2023/07/07 12:49:00;;;;;;;6.73;3.00;;;31.00;40.60;;;;;;4973953;28;20756;-64
2023/07/07 12:51:32;;;;;;;3.43;2.50;;;31.00;39.90;;;;;;4973812;28;20459;-63
2023/07/07 12:53:57;;;;;;;3.80;3.20;;;30.90;40.30;;;;;;4973730;28;20390;-64
2023/07/07 12:56:26;;;;;;;3.07;2.80;;;30.90;41.20;;;;;;4974228;28;20398;-64
2023/07/07 12:58:59;;;;;;;2.60;2.13;;;31.00;41.10;;;;;;4974067;28;20183;-65
2023/07/07 13:01:29;;;;;;;2.90;2.60;;;30.90;40.60;;;;;;4973948;28;20486;-65
2023/07/07 13:04:07;;;;;;;4.13;3.57;;;30.90;41.10;;;;;;4973632;28;20415;-65
2023/07/07 13:06:36;;;;;;;3.13;2.27;;;31.00;42.10;;;;;;4975263;28;20977;-65
2023/07/07 13:09:16;;;;;;;5.50;3.40;;;31.00;42.70;;;;;;4977585;28;20772;-65
2023/07/07 13:11:51;;;;;;;3.37;3.03;;;31.00;43.20;;;;;;4977582;28;20429;-65
2023/07/07 13:14:40;;;;;;;3.97;3.37;;;31.00;42.10;;;;;;4977061;28;20423;-65
2023/07/07 13:17:17;;;;;;;5.07;3.80;;;31.00;43.20;;;;;;4977356;28;20793;-65
2023/07/07 13:19:50;;;;;;;3.00;2.70;;;30.80;42.80;;;;;;4977058;28;20386;-65
2023/07/07 13:22:46;;;;;;;4.03;2.80;;;30.70;43.40;;;;;;4977034;28;20502;-65
2023/07/07 13:25:38;;;;;;;3.70;2.40;;;30.70;44.10;;;;;;4976555;28;20489;-65
2023/07/07 13:28:10;;;;;;;4.73;3.00;;;30.60;44.60;;;;;;4973107;28;20761;-65
2023/07/07 13:30:41;;;;;;;3.77;2.50;;;30.60;44.20;;;;;;4976870;28;20459;-65
2023/07/07 13:33:10;;;;;;;4.73;3.30;;;30.50;43.90;;;;;;4976694;28;20416;-65
2023/07/07 13:35:41;;;;;;;4.33;2.83;;;30.50;43.80;;;;;;4976499;28;20835;-65
2023/07/07 13:38:12;;;;;;;2.93;2.73;;;30.50;43.50;;;;;;4976834;28;20389;-64
2023/07/07 13:40:38;;;;;;;2.57;2.37;;;30.50;42.10;;;;;;4976964;28;20897;-65
2023/07/07 13:43:06;;;;;;;2.43;2.23;;;30.50;42.30;;;;;;4976775;28;20481;-65
2023/07/07 13:45:35;;;;;;;4.40;3.17;;;30.50;42.30;;;;;;4975990;28;20208;-65
2023/07/07 13:48:09;;;;;;;5.80;3.50;;;30.50;42.70;;;;;;4976338;28;20481;-65
2023/07/07 13:50:36;;;;;;;2.70;2.43;;;30.50;42.90;;;;;;4976176;28;20492;-65
2023/07/07 13:53:06;;;;;;;2.50;2.20;;;30.50;42.50;;;;;;4975504;28;20408;-65
2023/07/07 13:55:34;;;;;;;3.87;3.00;;;30.50;42.80;;;;;;4974491;28;20451;-65
2023/07/07 13:58:03;;;;;;;3.40;2.30;;;30.60;42.70;;;;;;4989533;28;20385;-66
2023/07/07 14:00:36;;;;;;;2.80;2.50;;;30.60;42.70;;;;;;4983525;28;20427;-65
2023/07/07 14:03:04;;;;;;;3.20;2.23;;;30.60;42.50;;;;;;4976582;28;20832;-65
2023/07/07 14:05:32;;;;;;;3.20;2.37;;;30.60;41.80;;;;;;4975161;28;20463;-62
2023/07/07 14:07:58;;;;;;;2.77;1.97;;;30.50;42.30;;;;;;4969012;28;20412;-63
2023/07/07 14:10:41;;;;;;;3.87;2.70;;;30.50;42.10;;;;;;4995417;28;20381;-64
2023/07/07 14:13:17;;;;;;;4.03;3.63;;;30.50;42.20;;;;;;4981927;28;20180;-64
2023/07/07 14:15:53;;;;;;;4.00;2.47;;;30.50;42.10;;;;;;4975382;28;20439;-64
2023/07/07 14:18:23;;;;;;;2.30;2.10;;;30.50;42.10;;;;;;4975374;28;20433;-64
2023/07/07 14:20:51;;;;;;;3.47;2.80;;;30.50;42.60;;;;;;4975569;28;20429;-64
2023/07/07 14:23:18;;;;;;;3.90;2.93;;;30.50;42.70;;;;;;4975213;28;20756;-64
2023/07/07 14:25:46;;;;;;;4.13;2.83;;;30.50;43.30;;;;;;4975129;28;20429;-64
2023/07/07 14:28:20;;;;;;;3.43;3.00;;;30.40;43.50;;;;;;4970309;28;20758;-64
2023/07/07 14:30:49;;;;;;;5.50;3.53;;;30.40;43.70;;;;;;4956466;28;20481;-63
2023/07/07 14:33:23;;;;;;;2.93;2.50;;;30.50;43.60;;;;;;4972206;28;20423;-63
2023/07/07 14:35:52;;;;;;;3.00;2.27;;;30.50;43.70;;;;;;4974101;28;20998;-63
2023/07/07 14:38:32;;;;;;;2.73;2.30;;;30.50;43.70;;;;;;4974493;28;20593;-62
2023/07/07 14:40:59;;;;;;;2.43;2.17;;;30.60;43.40;;;;;;4975223;28;20409;-64
2023/07/07 14:43:30;;;;;;;3.20;2.50;;;30.60;43.00;;;;;;4974671;28;20402;-63
2023/07/07 14:46:10;;;;;;;2.60;2.20;;;30.60;43.10;;;;;;4963666;28;20819;-62
2023/07/07 14:48:51;;;;;;;2.60;2.23;;;30.60;43.20;;;;;;4972489;28;20459;-62
2023/07/07 14:51:29;;;;;;;3.37;2.90;;;30.60;43.30;;;;;;4987608;28;20862;-62
2023/07/07 14:54:02;;;;;;;4.37;2.77;;;30.60;43.20;;;;;;4974737;28;20793;-62
2023/07/07 14:56:37;;;;;;;2.90;2.43;;;30.70;42.60;;;;;;4974171;28;20398;-63
2023/07/07 14:59:15;;;;;;;4.20;2.60;;;30.70;42.30;;;;;;4974834;28;20485;-63
2023/07/07 15:01:43;;;;;;;2.37;2.17;;;30.70;42.10;;;;;;4962513;28;20434;-63
2023/07/07 15:04:15;;;;;;;4.30;2.50;;;30.70;42.80;;;;;;4973162;28;20415;-64
2023/07/07 15:06:48;;;;;;;3.90;2.30;;;30.60;42.30;;;;;;4971503;28;20503;-64
2023/07/07 15:09:14;;;;;;;3.27;1.93;;;30.60;43.10;;;;;;4973348;28;20434;-63
2023/07/07 15:11:40;;;;;;;2.37;2.00;;;30.70;43.10;;;;;;4974486;28;20517;-64
2023/07/07 15:14:10;;;;;;;3.03;2.70;;;30.70;42.20;;;;;;4974293;28;20184;-62
2023/07/07 15:16:36;;;;;;;3.50;2.90;;;30.70;42.00;;;;;;4957240;28;20445;-64
2023/07/07 15:19:19;;;;;;;4.27;3.17;;;30.60;41.90;;;;;;4974711;28;20907;-63
2023/07/07 15:21:45;;;;;;;3.10;2.80;;;30.60;41.90;;;;;;4974730;28;20172;-62
2023/07/07 15:24:11;;;;;;;2.83;2.37;;;30.50;42.40;;;;;;4974433;28;20437;-61
2023/07/07 15:26:38;;;;;;;3.47;2.57;;;30.50;42.40;;;;;;4974845;28;20398;-62
2023/07/07 15:29:22;;;;;;;2.90;2.37;;;30.50;42.60;;;;;;4956475;28;20945;-62
2023/07/07 15:31:48;;;;;;;3.83;2.97;;;30.50;42.10;;;;;;4957408;28;20799;-64
2023/07/07 15:34:15;;;;;;;2.77;2.27;;;30.50;41.90;;;;;;4974497;28;20398;-62
2023/07/07 15:36:41;;;;;;;2.67;2.37;;;30.40;42.10;;;;;;4975049;28;20382;-62
2023/07/07 15:39:10;;;;;;;2.93;2.60;;;30.40;41.90;;;;;;4975000;28;20793;-62
2023/07/07 15:41:36;;;;;;;2.43;2.10;;;30.40;42.30;;;;;;4975104;28;20422;-62
2023/07/07 15:44:02;;;;;;;3.83;2.70;;;30.40;42.30;;;;;;4974421;28;20468;-62
2023/07/07 15:46:32;;;;;;;3.47;2.40;;;30.40;42.40;;;;;;4974964;28;20168;-63
2023/07/07 15:48:58;;;;;;;2.73;2.30;;;30.40;41.60;;;;;;4974954;28;20180;-62
2023/07/07 15:51:23;;;;;;;4.10;2.50;;;30.30;41.90;;;;;;4974757;28;20463;-62
2023/07/07 15:53:50;;;;;;;2.37;2.17;;;30.30;42.20;;;;;;4973981;28;20202;-62
2023/07/07 15:56:16;;;;;;;3.87;2.60;;;30.30;42.20;;;;;;4974349;28;20635;-62
2023/07/07 15:58:42;;;;;;;6.60;2.53;;;30.20;42.20;;;;;;4974149;28;20800;-62
2023/07/07 16:01:08;;;;;;;3.90;2.50;;;30.20;42.40;;;;;;4973918;28;20487;-62
2023/07/07 16:03:34;;;;;;;4.40;2.80;;;30.20;42.80;;;;;;4973757;28;20178;-62
2023/07/07 16:05:59;;;;;;;3.90;2.53;;;30.20;42.60;;;;;;4956378;28;20460;-63
2023/07/07 16:08:25;;;;;;;3.10;2.70;;;30.30;43.00;;;;;;4974091;28;20180;-62
2023/07/07 16:10:50;;;;;;;4.60;2.73;;;30.30;42.60;;;;;;4974156;28;20196;-63
2023/07/07 16:13:16;;;;;;;1.93;1.73;;;30.30;42.80;;;;;;4973969;28;20176;-62
2023/07/07 16:15:42;;;;;;;2.87;2.20;;;30.30;43.00;;;;;;4973720;28;20666;-62
2023/07/07 16:18:08;;;;;;;3.93;2.90;;;30.30;42.50;;;;;;4974057;28;20858;-63
2023/07/07 16:20:36;;;;;;;2.97;2.40;;;30.30;42.30;;;;;;4974171;28;20213;-63
2023/07/07 16:23:02;;;;;;;3.70;2.10;;;30.30;41.80;;;;;;4973982;28;20695;-63
2023/07/07 16:25:28;;;;;;;2.93;1.80;;;30.20;42.40;;;;;;4973467;28;20435;-62
2023/07/07 16:27:57;;;;;;;2.10;1.73;;;30.20;41.80;;;;;;4973868;28;20200;-63
2023/07/07 16:30:29;;;;;;;2.67;2.47;;;30.20;41.60;;;;;;4973925;28;20442;-63
2023/07/07 16:32:55;;;;;;;2.80;2.07;;;30.20;42.10;;;;;;4974094;28;20814;-63
2023/07/07 16:35:20;;;;;;;3.00;2.30;;;30.20;41.70;;;;;;4973590;28;20417;-63
2023/07/07 16:37:46;;;;;;;2.90;2.37;;;30.10;42.00;;;;;;4974120;28;20187;-63
2023/07/07 16:40:28;;;;;;;3.67;2.30;;;30.10;41.70;;;;;;4975303;28;20211;-63
2023/07/07 16:42:54;;;;;;;5.23;2.57;;;30.10;42.20;;;;;;4977619;28;20168;-63
2023/07/07 16:45:20;;;;;;;4.40;3.00;;;30.10;42.20;;;;;;4977588;28;20911;-63
2023/07/07 16:47:47;;;;;;;3.50;1.90;;;30.10;41.70;;;;;;4977668;28;20172;-63
2023/07/07 16:50:21;;;;;;;4.37;2.70;;;30.20;41.60;;;;;;4977636;28;20408;-63
2023/07/07 16:52:48;;;;;;;2.00;1.87;;;30.20;42.00;;;;;;4977385;28;20481;-62
2023/07/07 16:55:13;;;;;;;2.63;2.43;;;30.20;41.80;;;;;;4977060;28;20410;-63
2023/07/07 16:57:39;;;;;;;3.43;2.73;;;30.30;41.60;;;;;;4977610;28;20403;-63
2023/07/07 17:00:15;;;;;;;2.43;2.00;;;30.30;42.00;;;;;;4977610;28;20231;-63
2023/07/07 17:02:41;;;;;;;3.73;2.53;;;30.20;41.90;;;;;;4977447;28;20665;-63
2023/07/07 17:05:06;;;;;;;3.80;2.73;;;30.20;42.10;;;;;;4976850;28;20427;-63
2023/07/07 17:07:32;;;;;;;4.23;2.90;;;30.20;42.00;;;;;;4977497;28;20188;-63
2023/07/07 17:09:58;;;;;;;4.40;2.30;;;30.10;42.10;;;;;;4977222;28;20264;-63
2023/07/07 17:12:23;;;;;;;2.83;1.77;;;30.10;42.00;;;;;;4977262;28;20666;-62
2023/07/07 17:14:49;;;;;;;2.40;2.20;;;30.10;42.20;;;;;;4976987;28;20279;-63